Pagrindinis puslapis
METAR-TAF:

METAR-TAF

Oro uostai :

Paulo Afonso, Bahija, Brazilija

platuma: 09-24S, ilguma: 038-13W, Aukštis: 253 m

Dabartinis oras

Ataskaita buvo paskelbta 3 valandos ir 2 minutes, ne 19:00 UTC
Vėjas 6 kt iš Pietryčių
Temperatūra 37°C
Drėgmė 21%
Slėgis 1017 hPa
Matomumas 10 km arba daugiau
Išsisklaidę debesys ne aukštis 2400 ft

METAR: SBUF 121900Z 13006KT 9999 SCT024 37/11 Q1017

Laikas: 19:02 (22:02 UTC)


TAF: trūkstamas

Orai ataskaitas ir orų prognozės (METAR, TAF).

turimą stotys yra geltonos ir raudonos taškus žemėlapyje.

Perkelti pele per norėdami pamatyti stoties vardą.

Tada spustelėkite, norėdami matyti oro stebėjimo ir prognozės.

Norėdami pakeisti žemėlapį: spustelėkite ant žalios mygtukų su juodo kryžiaus žemyn,; žalią mygtuką su brūkšneliu, jei norite nutolinti; arba žalių rodyklių gretimoms žemėlapius.


METAR-TAF: